sensor_id;sensor_type;location;lat;lon;timestamp;temperature;humidity
75451;DHT22;64029;48.244;9.188;2023-03-21T00:01:15;5.90;80.40
75451;DHT22;64029;48.244;9.188;2023-03-21T00:03:42;5.90;80.60
75451;DHT22;64029;48.244;9.188;2023-03-21T00:06:12;5.90;80.60
75451;DHT22;64029;48.244;9.188;2023-03-21T00:08:41;5.80;80.50
75451;DHT22;64029;48.244;9.188;2023-03-21T00:11:10;5.80;80.50
75451;DHT22;64029;48.244;9.188;2023-03-21T00:13:38;5.80;80.60
75451;DHT22;64029;48.244;9.188;2023-03-21T00:16:08;5.70;80.50
75451;DHT22;64029;48.244;9.188;2023-03-21T00:18:40;5.70;80.60
75451;DHT22;64029;48.244;9.188;2023-03-21T00:21:10;5.60;80.50
75451;DHT22;64029;48.244;9.188;2023-03-21T00:23:41;5.60;80.50
75451;DHT22;64029;48.244;9.188;2023-03-21T00:26:08;5.50;80.50
75451;DHT22;64029;48.244;9.188;2023-03-21T00:28:36;5.50;80.40
75451;DHT22;64029;48.244;9.188;2023-03-21T00:31:03;5.50;80.40
75451;DHT22;64029;48.244;9.188;2023-03-21T00:33:30;5.50;80.50
75451;DHT22;64029;48.244;9.188;2023-03-21T00:35:57;5.40;80.40
75451;DHT22;64029;48.244;9.188;2023-03-21T00:38:24;5.40;80.20
75451;DHT22;64029;48.244;9.188;2023-03-21T00:40:52;5.40;79.90
75451;DHT22;64029;48.244;9.188;2023-03-21T00:43:19;5.40;80.10
75451;DHT22;64029;48.244;9.188;2023-03-21T00:45:49;5.40;80.00
75451;DHT22;64029;48.244;9.188;2023-03-21T00:48:17;5.40;79.80
75451;DHT22;64029;48.244;9.188;2023-03-21T00:50:45;5.40;79.90
75451;DHT22;64029;48.244;9.188;2023-03-21T00:53:13;5.40;80.10
75451;DHT22;64029;48.244;9.188;2023-03-21T00:55:40;5.30;80.20
75451;DHT22;64029;48.244;9.188;2023-03-21T00:58:08;5.30;81.00
75451;DHT22;64029;48.244;9.188;2023-03-21T01:00:35;5.30;80.80
75451;DHT22;64029;48.244;9.188;2023-03-21T01:03:03;5.30;80.60
75451;DHT22;64029;48.244;9.188;2023-03-21T01:05:35;5.20;80.40
75451;DHT22;64029;48.244;9.188;2023-03-21T01:08:20;5.20;80.40
75451;DHT22;64029;48.244;9.188;2023-03-21T01:10:49;5.20;80.40
75451;DHT22;64029;48.244;9.188;2023-03-21T01:13:20;5.20;80.30
75451;DHT22;64029;48.244;9.188;2023-03-21T01:15:49;5.20;80.40
75451;DHT22;64029;48.244;9.188;2023-03-21T01:18:17;5.20;80.30
75451;DHT22;64029;48.244;9.188;2023-03-21T01:20:44;5.20;80.30
75451;DHT22;64029;48.244;9.188;2023-03-21T01:23:13;5.20;80.30
75451;DHT22;64029;48.244;9.188;2023-03-21T01:25:40;5.20;80.30
75451;DHT22;64029;48.244;9.188;2023-03-21T01:28:07;5.20;81.20
75451;DHT22;64029;48.244;9.188;2023-03-21T01:30:36;5.20;80.40
75451;DHT22;64029;48.244;9.188;2023-03-21T01:33:03;5.20;80.20
75451;DHT22;64029;48.244;9.188;2023-03-21T01:35:30;5.10;80.20
75451;DHT22;64029;48.244;9.188;2023-03-21T01:37:57;5.10;80.30
75451;DHT22;64029;48.244;9.188;2023-03-21T01:40:25;5.10;80.20
75451;DHT22;64029;48.244;9.188;2023-03-21T01:42:52;5.10;80.10
75451;DHT22;64029;48.244;9.188;2023-03-21T01:48:26;5.10;80.20
75451;DHT22;64029;48.244;9.188;2023-03-21T01:50:54;5.10;80.10
75451;DHT22;64029;48.244;9.188;2023-03-21T01:53:26;5.10;80.20
75451;DHT22;64029;48.244;9.188;2023-03-21T01:55:56;5.10;81.00
75451;DHT22;64029;48.244;9.188;2023-03-21T01:58:23;5.10;80.70
75451;DHT22;64029;48.244;9.188;2023-03-21T02:00:51;5.10;80.70
75451;DHT22;64029;48.244;9.188;2023-03-21T02:03:20;5.10;80.90
75451;DHT22;64029;48.244;9.188;2023-03-21T02:05:54;5.00;80.70
75451;DHT22;64029;48.244;9.188;2023-03-21T02:08:22;5.10;80.70
75451;DHT22;64029;48.244;9.188;2023-03-21T02:10:49;5.10;80.90
75451;DHT22;64029;48.244;9.188;2023-03-21T02:13:17;5.00;80.90
75451;DHT22;64029;48.244;9.188;2023-03-21T02:15:48;5.00;80.60
75451;DHT22;64029;48.244;9.188;2023-03-21T02:18:23;5.00;81.40
75451;DHT22;64029;48.244;9.188;2023-03-21T02:26:56;5.00;80.60
75451;DHT22;64029;48.244;9.188;2023-03-21T02:29:46;5.00;80.30
75451;DHT22;64029;48.244;9.188;2023-03-21T02:32:26;5.00;80.30
75451;DHT22;64029;48.244;9.188;2023-03-21T02:35:17;5.00;80.20
75451;DHT22;64029;48.244;9.188;2023-03-21T02:37:51;5.00;80.10
75451;DHT22;64029;48.244;9.188;2023-03-21T02:40:24;5.00;80.20
75451;DHT22;64029;48.244;9.188;2023-03-21T02:42:59;5.00;80.20
75451;DHT22;64029;48.244;9.188;2023-03-21T02:45:32;5.00;79.90
75451;DHT22;64029;48.244;9.188;2023-03-21T02:48:03;5.00;80.30
75451;DHT22;64029;48.244;9.188;2023-03-21T02:50:34;5.00;80.20
75451;DHT22;64029;48.244;9.188;2023-03-21T02:53:10;5.00;80.30
75451;DHT22;64029;48.244;9.188;2023-03-21T02:55:39;4.90;80.10
75451;DHT22;64029;48.244;9.188;2023-03-21T02:58:13;4.90;80.80
75451;DHT22;64029;48.244;9.188;2023-03-21T03:00:42;5.00;80.40
75451;DHT22;64029;48.244;9.188;2023-03-21T03:03:09;4.90;80.20
75451;DHT22;64029;48.244;9.188;2023-03-21T03:05:42;4.90;80.20
75451;DHT22;64029;48.244;9.188;2023-03-21T03:08:23;4.90;80.80
75451;DHT22;64029;48.244;9.188;2023-03-21T03:11:05;4.90;81.00
75451;DHT22;64029;48.244;9.188;2023-03-21T03:13:42;4.90;80.60
75451;DHT22;64029;48.244;9.188;2023-03-21T03:16:21;4.90;80.70
75451;DHT22;64029;48.244;9.188;2023-03-21T03:18:56;4.90;81.10
75451;DHT22;64029;48.244;9.188;2023-03-21T03:21:27;4.90;80.90
75451;DHT22;64029;48.244;9.188;2023-03-21T03:24:01;4.90;80.90
75451;DHT22;64029;48.244;9.188;2023-03-21T03:26:32;4.90;80.90
75451;DHT22;64029;48.244;9.188;2023-03-21T03:29:02;4.90;80.90
75451;DHT22;64029;48.244;9.188;2023-03-21T03:31:34;4.90;81.50
75451;DHT22;64029;48.244;9.188;2023-03-21T03:34:05;4.90;80.90
75451;DHT22;64029;48.244;9.188;2023-03-21T03:36:37;4.90;80.80
75451;DHT22;64029;48.244;9.188;2023-03-21T03:39:08;4.90;80.70
75451;DHT22;64029;48.244;9.188;2023-03-21T03:41:41;4.90;80.70
75451;DHT22;64029;48.244;9.188;2023-03-21T03:44:09;4.90;80.90
75451;DHT22;64029;48.244;9.188;2023-03-21T03:46:44;4.90;80.90
75451;DHT22;64029;48.244;9.188;2023-03-21T03:49:15;4.90;80.60
75451;DHT22;64029;48.244;9.188;2023-03-21T03:51:49;4.90;80.80
75451;DHT22;64029;48.244;9.188;2023-03-21T03:54:22;4.90;80.90
75451;DHT22;64029;48.244;9.188;2023-03-21T03:56:50;4.90;81.40
75451;DHT22;64029;48.244;9.188;2023-03-21T03:59:17;4.80;81.40
75451;DHT22;64029;48.244;9.188;2023-03-21T04:01:46;4.90;82.10
75451;DHT22;64029;48.244;9.188;2023-03-21T04:04:14;4.80;83.10
75451;DHT22;64029;48.244;9.188;2023-03-21T04:06:41;4.80;82.20
75451;DHT22;64029;48.244;9.188;2023-03-21T04:09:10;4.80;82.10
75451;DHT22;64029;48.244;9.188;2023-03-21T04:11:39;4.80;82.30
75451;DHT22;64029;48.244;9.188;2023-03-21T04:14:06;4.90;82.10
75451;DHT22;64029;48.244;9.188;2023-03-21T04:16:32;4.80;81.80
75451;DHT22;64029;48.244;9.188;2023-03-21T04:18:59;4.90;82.00
75451;DHT22;64029;48.244;9.188;2023-03-21T04:21:27;4.80;81.70
75451;DHT22;64029;48.244;9.188;2023-03-21T04:23:54;4.80;81.40
75451;DHT22;64029;48.244;9.188;2023-03-21T04:26:22;4.80;81.50
75451;DHT22;64029;48.244;9.188;2023-03-21T04:28:50;4.80;81.60
75451;DHT22;64029;48.244;9.188;2023-03-21T04:31:17;4.80;82.00
75451;DHT22;64029;48.244;9.188;2023-03-21T04:33:44;4.80;82.20
75451;DHT22;64029;48.244;9.188;2023-03-21T04:36:12;4.80;82.00
75451;DHT22;64029;48.244;9.188;2023-03-21T04:38:49;4.80;82.20
75451;DHT22;64029;48.244;9.188;2023-03-21T04:41:16;4.80;82.60
75451;DHT22;64029;48.244;9.188;2023-03-21T04:43:43;4.70;82.30
75451;DHT22;64029;48.244;9.188;2023-03-21T04:46:12;4.70;82.10
75451;DHT22;64029;48.244;9.188;2023-03-21T04:48:39;4.70;82.10
75451;DHT22;64029;48.244;9.188;2023-03-21T04:51:07;4.70;82.20
75451;DHT22;64029;48.244;9.188;2023-03-21T04:53:34;4.70;82.30
75451;DHT22;64029;48.244;9.188;2023-03-21T04:56:03;4.60;82.20
75451;DHT22;64029;48.244;9.188;2023-03-21T04:58:30;4.60;82.20
75451;DHT22;64029;48.244;9.188;2023-03-21T05:00:57;4.60;82.20
75451;DHT22;64029;48.244;9.188;2023-03-21T05:03:25;4.60;82.40
75451;DHT22;64029;48.244;9.188;2023-03-21T05:05:58;4.50;82.10
75451;DHT22;64029;48.244;9.188;2023-03-21T05:08:25;4.50;82.10
75451;DHT22;64029;48.244;9.188;2023-03-21T05:10:52;4.50;82.30
75451;DHT22;64029;48.244;9.188;2023-03-21T05:13:19;4.40;82.20
75451;DHT22;64029;48.244;9.188;2023-03-21T05:15:46;4.40;82.70
75451;DHT22;64029;48.244;9.188;2023-03-21T05:18:13;4.40;82.40
75451;DHT22;64029;48.244;9.188;2023-03-21T05:20:41;4.40;82.30
75451;DHT22;64029;48.244;9.188;2023-03-21T05:23:08;4.40;82.30
75451;DHT22;64029;48.244;9.188;2023-03-21T05:25:36;4.30;82.20
75451;DHT22;64029;48.244;9.188;2023-03-21T05:28:04;4.30;82.20
75451;DHT22;64029;48.244;9.188;2023-03-21T05:30:31;4.30;82.20
75451;DHT22;64029;48.244;9.188;2023-03-21T05:32:58;4.30;82.30
75451;DHT22;64029;48.244;9.188;2023-03-21T05:35:25;4.30;82.20
75451;DHT22;64029;48.244;9.188;2023-03-21T05:37:54;4.30;82.40
75451;DHT22;64029;48.244;9.188;2023-03-21T05:40:20;4.30;82.20
75451;DHT22;64029;48.244;9.188;2023-03-21T05:42:47;4.30;82.20
75451;DHT22;64029;48.244;9.188;2023-03-21T05:45:15;4.30;82.10
75451;DHT22;64029;48.244;9.188;2023-03-21T05:47:42;4.30;82.10
75451;DHT22;64029;48.244;9.188;2023-03-21T05:50:09;4.30;82.30
75451;DHT22;64029;48.244;9.188;2023-03-21T05:52:38;4.30;82.30
75451;DHT22;64029;48.244;9.188;2023-03-21T05:55:07;4.20;82.10
75451;DHT22;64029;48.244;9.188;2023-03-21T05:57:34;4.20;81.90
75451;DHT22;64029;48.244;9.188;2023-03-21T06:00:05;4.20;81.90
75451;DHT22;64029;48.244;9.188;2023-03-21T06:02:32;4.30;81.80
75451;DHT22;64029;48.244;9.188;2023-03-21T06:04:59;4.30;81.80
75451;DHT22;64029;48.244;9.188;2023-03-21T06:07:26;4.30;81.50
75451;DHT22;64029;48.244;9.188;2023-03-21T06:09:53;4.30;81.60
75451;DHT22;64029;48.244;9.188;2023-03-21T06:12:21;4.30;81.60
75451;DHT22;64029;48.244;9.188;2023-03-21T06:14:48;4.30;81.60
75451;DHT22;64029;48.244;9.188;2023-03-21T06:17:15;4.30;81.40
75451;DHT22;64029;48.244;9.188;2023-03-21T06:19:42;4.30;81.80
75451;DHT22;64029;48.244;9.188;2023-03-21T06:22:08;4.30;82.00
75451;DHT22;64029;48.244;9.188;2023-03-21T06:24:35;4.30;81.90
75451;DHT22;64029;48.244;9.188;2023-03-21T06:27:03;4.30;81.80
75451;DHT22;64029;48.244;9.188;2023-03-21T06:29:31;4.30;81.60
75451;DHT22;64029;48.244;9.188;2023-03-21T06:31:58;4.40;81.80
75451;DHT22;64029;48.244;9.188;2023-03-21T06:34:25;4.40;82.40
75451;DHT22;64029;48.244;9.188;2023-03-21T06:36:52;4.40;81.60
75451;DHT22;64029;48.244;9.188;2023-03-21T06:39:19;4.50;81.90
75451;DHT22;64029;48.244;9.188;2023-03-21T06:41:46;4.50;82.20
75451;DHT22;64029;48.244;9.188;2023-03-21T06:44:12;4.60;81.70
75451;DHT22;64029;48.244;9.188;2023-03-21T06:46:41;4.70;81.60
75451;DHT22;64029;48.244;9.188;2023-03-21T06:49:08;4.70;81.50
75451;DHT22;64029;48.244;9.188;2023-03-21T06:51:34;4.80;81.60
75451;DHT22;64029;48.244;9.188;2023-03-21T06:54:02;4.90;82.00
75451;DHT22;64029;48.244;9.188;2023-03-21T06:56:28;5.00;82.40
75451;DHT22;64029;48.244;9.188;2023-03-21T06:58:55;5.10;82.40
75451;DHT22;64029;48.244;9.188;2023-03-21T07:01:22;5.20;82.30
75451;DHT22;64029;48.244;9.188;2023-03-21T07:03:53;5.40;82.60
75451;DHT22;64029;48.244;9.188;2023-03-21T07:06:22;5.50;82.70
75451;DHT22;64029;48.244;9.188;2023-03-21T07:08:51;5.60;82.70
75451;DHT22;64029;48.244;9.188;2023-03-21T07:11:18;5.70;83.10
75451;DHT22;64029;48.244;9.188;2023-03-21T07:13:46;5.90;83.20
75451;DHT22;64029;48.244;9.188;2023-03-21T07:16:16;6.00;83.20
75451;DHT22;64029;48.244;9.188;2023-03-21T07:18:43;6.20;83.40
75451;DHT22;64029;48.244;9.188;2023-03-21T07:21:11;6.30;83.40
75451;DHT22;64029;48.244;9.188;2023-03-21T07:23:38;6.40;83.30
75451;DHT22;64029;48.244;9.188;2023-03-21T07:26:06;6.50;83.30
75451;DHT22;64029;48.244;9.188;2023-03-21T07:28:33;6.60;83.50
75451;DHT22;64029;48.244;9.188;2023-03-21T07:31:01;6.70;83.50
75451;DHT22;64029;48.244;9.188;2023-03-21T07:33:29;6.80;83.80
75451;DHT22;64029;48.244;9.188;2023-03-21T07:35:57;6.80;83.30
75451;DHT22;64029;48.244;9.188;2023-03-21T07:38:25;6.90;83.30
75451;DHT22;64029;48.244;9.188;2023-03-21T07:40:52;7.00;83.50
75451;DHT22;64029;48.244;9.188;2023-03-21T07:43:19;7.00;83.50
75451;DHT22;64029;48.244;9.188;2023-03-21T07:45:46;7.10;83.60
75451;DHT22;64029;48.244;9.188;2023-03-21T07:48:14;7.20;83.70
75451;DHT22;64029;48.244;9.188;2023-03-21T07:50:42;7.20;83.70
75451;DHT22;64029;48.244;9.188;2023-03-21T07:53:09;7.30;83.70
75451;DHT22;64029;48.244;9.188;2023-03-21T07:55:37;7.30;83.60
75451;DHT22;64029;48.244;9.188;2023-03-21T07:58:04;7.30;83.70
75451;DHT22;64029;48.244;9.188;2023-03-21T08:00:31;7.40;83.70
75451;DHT22;64029;48.244;9.188;2023-03-21T08:02:58;7.50;83.90
75451;DHT22;64029;48.244;9.188;2023-03-21T08:05:27;7.50;83.80
75451;DHT22;64029;48.244;9.188;2023-03-21T08:07:55;7.50;83.80
75451;DHT22;64029;48.244;9.188;2023-03-21T08:10:22;7.70;84.00
75451;DHT22;64029;48.244;9.188;2023-03-21T08:12:51;7.80;84.70
75451;DHT22;64029;48.244;9.188;2023-03-21T08:15:18;7.90;83.80
75451;DHT22;64029;48.244;9.188;2023-03-21T08:17:45;8.10;83.60
75451;DHT22;64029;48.244;9.188;2023-03-21T08:20:14;8.10;82.90
75451;DHT22;64029;48.244;9.188;2023-03-21T08:22:42;8.20;82.90
75451;DHT22;64029;48.244;9.188;2023-03-21T08:25:10;8.40;83.60
75451;DHT22;64029;48.244;9.188;2023-03-21T08:27:39;8.40;82.90
75451;DHT22;64029;48.244;9.188;2023-03-21T08:30:09;8.50;83.40
75451;DHT22;64029;48.244;9.188;2023-03-21T08:32:36;8.60;81.90
75451;DHT22;64029;48.244;9.188;2023-03-21T08:35:05;8.70;83.10
75451;DHT22;64029;48.244;9.188;2023-03-21T08:37:34;8.80;83.20
75451;DHT22;64029;48.244;9.188;2023-03-21T08:40:01;8.80;81.90
75451;DHT22;64029;48.244;9.188;2023-03-21T08:42:31;8.90;82.60
75451;DHT22;64029;48.244;9.188;2023-03-21T08:44:58;8.90;82.60
75451;DHT22;64029;48.244;9.188;2023-03-21T08:47:26;9.00;82.80
75451;DHT22;64029;48.244;9.188;2023-03-21T08:49:53;9.10;81.80
75451;DHT22;64029;48.244;9.188;2023-03-21T08:52:20;9.10;81.60
75451;DHT22;64029;48.244;9.188;2023-03-21T08:54:47;9.20;81.40
75451;DHT22;64029;48.244;9.188;2023-03-21T08:57:14;9.20;82.10
75451;DHT22;64029;48.244;9.188;2023-03-21T08:59:41;9.30;81.80
75451;DHT22;64029;48.244;9.188;2023-03-21T09:02:09;9.30;80.80
75451;DHT22;64029;48.244;9.188;2023-03-21T09:04:37;9.40;82.30
75451;DHT22;64029;48.244;9.188;2023-03-21T09:07:05;9.50;81.80
75451;DHT22;64029;48.244;9.188;2023-03-21T09:09:31;9.50;82.30
75451;DHT22;64029;48.244;9.188;2023-03-21T09:11:58;9.60;82.40
75451;DHT22;64029;48.244;9.188;2023-03-21T09:14:25;9.60;80.70
75451;DHT22;64029;48.244;9.188;2023-03-21T09:16:52;9.60;81.10
75451;DHT22;64029;48.244;9.188;2023-03-21T09:19:19;9.70;81.60
75451;DHT22;64029;48.244;9.188;2023-03-21T09:21:47;9.80;81.10
75451;DHT22;64029;48.244;9.188;2023-03-21T09:24:14;9.80;79.00
75451;DHT22;64029;48.244;9.188;2023-03-21T09:26:42;9.80;81.00
75451;DHT22;64029;48.244;9.188;2023-03-21T09:29:09;9.90;81.60
75451;DHT22;64029;48.244;9.188;2023-03-21T09:31:36;10.00;80.30
75451;DHT22;64029;48.244;9.188;2023-03-21T09:34:04;10.00;79.50
75451;DHT22;64029;48.244;9.188;2023-03-21T09:36:31;10.10;79.90
75451;DHT22;64029;48.244;9.188;2023-03-21T09:39:02;10.10;80.50
75451;DHT22;64029;48.244;9.188;2023-03-21T09:41:51;10.20;78.70
75451;DHT22;64029;48.244;9.188;2023-03-21T09:44:29;10.20;77.90
75451;DHT22;64029;48.244;9.188;2023-03-21T09:47:00;10.30;78.70
75451;DHT22;64029;48.244;9.188;2023-03-21T09:49:31;10.40;77.90
75451;DHT22;64029;48.244;9.188;2023-03-21T09:52:03;10.40;77.90
75451;DHT22;64029;48.244;9.188;2023-03-21T09:54:36;10.40;79.00
75451;DHT22;64029;48.244;9.188;2023-03-21T09:57:12;10.40;75.50
75451;DHT22;64029;48.244;9.188;2023-03-21T09:59:44;10.50;74.90
75451;DHT22;64029;48.244;9.188;2023-03-21T10:02:24;10.70;73.00
75451;DHT22;64029;48.244;9.188;2023-03-21T10:04:57;10.80;72.30
75451;DHT22;64029;48.244;9.188;2023-03-21T10:07:25;10.70;75.50
75451;DHT22;64029;48.244;9.188;2023-03-21T10:09:54;10.70;76.10
75451;DHT22;64029;48.244;9.188;2023-03-21T10:12:22;10.70;77.10
75451;DHT22;64029;48.244;9.188;2023-03-21T10:14:56;10.80;77.50
75451;DHT22;64029;48.244;9.188;2023-03-21T10:17:27;10.80;78.00
75451;DHT22;64029;48.244;9.188;2023-03-21T10:19:57;10.90;77.00
75451;DHT22;64029;48.244;9.188;2023-03-21T10:22:35;10.90;76.00
75451;DHT22;64029;48.244;9.188;2023-03-21T10:25:04;11.00;75.80
75451;DHT22;64029;48.244;9.188;2023-03-21T10:27:33;11.00;74.20
75451;DHT22;64029;48.244;9.188;2023-03-21T10:30:05;11.10;73.70
75451;DHT22;64029;48.244;9.188;2023-03-21T10:32:34;11.40;72.60
75451;DHT22;64029;48.244;9.188;2023-03-21T10:35:02;11.50;71.50
75451;DHT22;64029;48.244;9.188;2023-03-21T10:37:30;11.50;72.30
75451;DHT22;64029;48.244;9.188;2023-03-21T10:39:58;11.40;72.60
75451;DHT22;64029;48.244;9.188;2023-03-21T10:42:29;11.40;71.90
75451;DHT22;64029;48.244;9.188;2023-03-21T10:44:57;11.50;71.10
75451;DHT22;64029;48.244;9.188;2023-03-21T10:47:26;11.60;70.10
75451;DHT22;64029;48.244;9.188;2023-03-21T10:49:53;11.60;72.20
75451;DHT22;64029;48.244;9.188;2023-03-21T10:52:22;11.60;72.20
75451;DHT22;64029;48.244;9.188;2023-03-21T10:55:05;11.60;71.50
75451;DHT22;64029;48.244;9.188;2023-03-21T10:57:34;11.60;71.60
75451;DHT22;64029;48.244;9.188;2023-03-21T11:00:03;11.60;71.50
75451;DHT22;64029;48.244;9.188;2023-03-21T11:02:39;11.60;71.10
75451;DHT22;64029;48.244;9.188;2023-03-21T11:05:17;11.70;68.70
75451;DHT22;64029;48.244;9.188;2023-03-21T11:07:47;11.80;71.80
75451;DHT22;64029;48.244;9.188;2023-03-21T11:10:24;11.80;68.20
75451;DHT22;64029;48.244;9.188;2023-03-21T11:12:55;11.80;69.00
75451;DHT22;64029;48.244;9.188;2023-03-21T11:15:28;12.10;67.60
75451;DHT22;64029;48.244;9.188;2023-03-21T11:17:56;12.00;68.90
75451;DHT22;64029;48.244;9.188;2023-03-21T11:20:23;12.00;69.00
75451;DHT22;64029;48.244;9.188;2023-03-21T11:22:53;12.00;71.00
75451;DHT22;64029;48.244;9.188;2023-03-21T11:25:26;12.00;70.90
75451;DHT22;64029;48.244;9.188;2023-03-21T11:27:58;12.10;72.50
75451;DHT22;64029;48.244;9.188;2023-03-21T11:30:30;12.20;72.40
75451;DHT22;64029;48.244;9.188;2023-03-21T11:33:01;12.20;72.70
75451;DHT22;64029;48.244;9.188;2023-03-21T11:35:33;12.20;72.10
75451;DHT22;64029;48.244;9.188;2023-03-21T11:38:00;12.30;73.00
75451;DHT22;64029;48.244;9.188;2023-03-21T11:40:28;12.40;67.50
75451;DHT22;64029;48.244;9.188;2023-03-21T11:42:56;12.40;70.20
75451;DHT22;64029;48.244;9.188;2023-03-21T11:45:26;12.50;66.70
75451;DHT22;64029;48.244;9.188;2023-03-21T11:47:55;12.60;68.00
75451;DHT22;64029;48.244;9.188;2023-03-21T11:50:28;12.50;71.10
75451;DHT22;64029;48.244;9.188;2023-03-21T11:53:19;12.50;68.60
75451;DHT22;64029;48.244;9.188;2023-03-21T11:55:58;12.60;67.20
75451;DHT22;64029;48.244;9.188;2023-03-21T11:58:35;12.60;65.80
75451;DHT22;64029;48.244;9.188;2023-03-21T12:01:12;12.70;68.40
75451;DHT22;64029;48.244;9.188;2023-03-21T12:03:51;12.70;65.90
75451;DHT22;64029;48.244;9.188;2023-03-21T12:06:25;12.70;68.70
75451;DHT22;64029;48.244;9.188;2023-03-21T12:09:04;12.80;67.30
75451;DHT22;64029;48.244;9.188;2023-03-21T12:11:40;12.80;65.10
75451;DHT22;64029;48.244;9.188;2023-03-21T12:14:18;12.80;63.50
75451;DHT22;64029;48.244;9.188;2023-03-21T12:16:57;12.80;67.70
75451;DHT22;64029;48.244;9.188;2023-03-21T12:19:44;12.90;65.80
75451;DHT22;64029;48.244;9.188;2023-03-21T12:22:20;12.90;64.40
75451;DHT22;64029;48.244;9.188;2023-03-21T12:24:53;12.90;64.80
75451;DHT22;64029;48.244;9.188;2023-03-21T12:44:16;13.00;67.80
75451;DHT22;64029;48.244;9.188;2023-03-21T12:46:46;13.00;68.90
75451;DHT22;64029;48.244;9.188;2023-03-21T12:49:17;13.10;68.70
75451;DHT22;64029;48.244;9.188;2023-03-21T12:51:48;13.10;68.60
75451;DHT22;64029;48.244;9.188;2023-03-21T12:54:22;13.10;65.50
75451;DHT22;64029;48.244;9.188;2023-03-21T12:56:54;13.00;57.00
75451;DHT22;64029;48.244;9.188;2023-03-21T12:59:31;12.90;64.90
75451;DHT22;64029;48.244;9.188;2023-03-21T13:02:12;13.00;67.60
75451;DHT22;64029;48.244;9.188;2023-03-21T13:04:45;13.00;60.20
75451;DHT22;64029;48.244;9.188;2023-03-21T13:07:16;13.00;67.30
75451;DHT22;64029;48.244;9.188;2023-03-21T13:09:44;13.10;68.20
75451;DHT22;64029;48.244;9.188;2023-03-21T13:12:33;13.20;68.20
75451;DHT22;64029;48.244;9.188;2023-03-21T13:15:15;13.10;64.30
75451;DHT22;64029;48.244;9.188;2023-03-21T13:17:49;13.20;67.90
75451;DHT22;64029;48.244;9.188;2023-03-21T13:20:23;13.30;63.70
75451;DHT22;64029;48.244;9.188;2023-03-21T13:22:52;13.30;66.20
75451;DHT22;64029;48.244;9.188;2023-03-21T13:25:21;13.30;67.60
75451;DHT22;64029;48.244;9.188;2023-03-21T13:27:51;13.30;62.80
75451;DHT22;64029;48.244;9.188;2023-03-21T13:30:22;13.40;69.00
75451;DHT22;64029;48.244;9.188;2023-03-21T13:32:54;13.40;62.20
75451;DHT22;64029;48.244;9.188;2023-03-21T13:35:23;13.40;67.60
75451;DHT22;64029;48.244;9.188;2023-03-21T13:37:55;13.40;68.40
75451;DHT22;64029;48.244;9.188;2023-03-21T13:40:24;13.50;68.20
75451;DHT22;64029;48.244;9.188;2023-03-21T13:42:54;13.50;67.60
75451;DHT22;64029;48.244;9.188;2023-03-21T13:45:29;13.50;67.90
75451;DHT22;64029;48.244;9.188;2023-03-21T13:47:59;13.50;67.50
75451;DHT22;64029;48.244;9.188;2023-03-21T13:50:34;13.50;68.60
75451;DHT22;64029;48.244;9.188;2023-03-21T13:53:32;13.50;68.10
75451;DHT22;64029;48.244;9.188;2023-03-21T13:56:19;13.50;68.00
75451;DHT22;64029;48.244;9.188;2023-03-21T13:58:52;13.50;68.20
75451;DHT22;64029;48.244;9.188;2023-03-21T14:01:34;13.50;66.70
75451;DHT22;64029;48.244;9.188;2023-03-21T14:04:10;13.50;68.50
75451;DHT22;64029;48.244;9.188;2023-03-21T14:06:44;13.50;67.10
75451;DHT22;64029;48.244;9.188;2023-03-21T14:09:18;13.60;68.30
75451;DHT22;64029;48.244;9.188;2023-03-21T14:11:47;13.50;64.20
75451;DHT22;64029;48.244;9.188;2023-03-21T14:14:16;13.60;67.30
75451;DHT22;64029;48.244;9.188;2023-03-21T14:16:44;13.60;68.60
75451;DHT22;64029;48.244;9.188;2023-03-21T14:19:11;13.60;65.40
75451;DHT22;64029;48.244;9.188;2023-03-21T14:21:46;13.60;67.10
75451;DHT22;64029;48.244;9.188;2023-03-21T14:24:16;13.60;67.40
75451;DHT22;64029;48.244;9.188;2023-03-21T14:26:46;13.60;61.30
75451;DHT22;64029;48.244;9.188;2023-03-21T14:29:19;13.60;63.70
75451;DHT22;64029;48.244;9.188;2023-03-21T14:31:48;13.60;66.00
75451;DHT22;64029;48.244;9.188;2023-03-21T14:34:15;13.70;67.20
75451;DHT22;64029;48.244;9.188;2023-03-21T14:36:43;13.70;65.30
75451;DHT22;64029;48.244;9.188;2023-03-21T14:39:15;13.70;66.50
75451;DHT22;64029;48.244;9.188;2023-03-21T14:41:46;13.70;62.80
75451;DHT22;64029;48.244;9.188;2023-03-21T14:44:20;13.70;64.30
75451;DHT22;64029;48.244;9.188;2023-03-21T14:46:52;13.70;66.30
75451;DHT22;64029;48.244;9.188;2023-03-21T14:49:26;13.70;65.40
75451;DHT22;64029;48.244;9.188;2023-03-21T14:51:54;13.70;67.40
75451;DHT22;64029;48.244;9.188;2023-03-21T14:54:22;13.80;67.60
75451;DHT22;64029;48.244;9.188;2023-03-21T14:56:55;13.70;67.40
75451;DHT22;64029;48.244;9.188;2023-03-21T14:59:26;13.70;68.00
75451;DHT22;64029;48.244;9.188;2023-03-21T15:01:58;13.70;67.60
75451;DHT22;64029;48.244;9.188;2023-03-21T15:04:27;13.70;68.20
75451;DHT22;64029;48.244;9.188;2023-03-21T15:06:56;13.70;65.60
75451;DHT22;64029;48.244;9.188;2023-03-21T15:09:27;13.70;68.00
75451;DHT22;64029;48.244;9.188;2023-03-21T15:11:56;13.70;68.50
75451;DHT22;64029;48.244;9.188;2023-03-21T15:14:27;13.70;68.60
75451;DHT22;64029;48.244;9.188;2023-03-21T15:16:59;13.70;67.70
75451;DHT22;64029;48.244;9.188;2023-03-21T15:19:31;13.70;65.40
75451;DHT22;64029;48.244;9.188;2023-03-21T15:22:03;13.70;68.00
75451;DHT22;64029;48.244;9.188;2023-03-21T15:24:35;13.60;69.20
75451;DHT22;64029;48.244;9.188;2023-03-21T15:27:06;13.70;69.40
75451;DHT22;64029;48.244;9.188;2023-03-21T15:29:34;13.70;68.70
75451;DHT22;64029;48.244;9.188;2023-03-21T15:32:06;13.60;68.80
75451;DHT22;64029;48.244;9.188;2023-03-21T15:34:35;13.60;65.90
75451;DHT22;64029;48.244;9.188;2023-03-21T15:37:05;13.60;66.80
75451;DHT22;64029;48.244;9.188;2023-03-21T15:39:33;13.60;67.70
75451;DHT22;64029;48.244;9.188;2023-03-21T15:42:03;13.60;67.10
75451;DHT22;64029;48.244;9.188;2023-03-21T15:44:33;13.60;68.50
75451;DHT22;64029;48.244;9.188;2023-03-21T15:47:00;13.60;68.40
75451;DHT22;64029;48.244;9.188;2023-03-21T15:49:30;13.60;68.90
75451;DHT22;64029;48.244;9.188;2023-03-21T15:52:01;13.50;69.20
75451;DHT22;64029;48.244;9.188;2023-03-21T15:54:31;13.60;69.20
75451;DHT22;64029;48.244;9.188;2023-03-21T15:57:00;13.50;66.00
75451;DHT22;64029;48.244;9.188;2023-03-21T15:59:32;13.40;66.80
75451;DHT22;64029;48.244;9.188;2023-03-21T16:02:02;13.50;68.60
75451;DHT22;64029;48.244;9.188;2023-03-21T16:04:30;13.50;65.60
75451;DHT22;64029;48.244;9.188;2023-03-21T16:06:59;13.40;65.80
75451;DHT22;64029;48.244;9.188;2023-03-21T16:09:26;13.40;65.60
75451;DHT22;64029;48.244;9.188;2023-03-21T16:11:55;13.40;67.80
75451;DHT22;64029;48.244;9.188;2023-03-21T16:14:24;13.40;68.80
75451;DHT22;64029;48.244;9.188;2023-03-21T16:16:52;13.40;69.20
75451;DHT22;64029;48.244;9.188;2023-03-21T16:19:19;13.40;69.30
75451;DHT22;64029;48.244;9.188;2023-03-21T16:21:48;13.40;67.60
75451;DHT22;64029;48.244;9.188;2023-03-21T16:24:14;13.40;65.60